Time;durP1;ratioP1;P1;durP2;ratioP2;P2;SDS_P1;SDS_P2;PMS_P1;PMS_P2;Temp;Humidity;BMP_temperature;BMP_pressure;BME280_temperature;BME280_humidity;BME280_pressure;Samples;Min_cycle;Max_cycle;Signal;HPM_P1;HPM_P2
2020/12/01 00:00:13;;;;;;;19.40;10.48;;;2.00;99.90;;;;;;5077887;28;20436;-69
2020/12/01 00:02:41;;;;;;;24.63;12.75;;;2.00;99.90;;;;;;5077319;28;20024;-69
2020/12/01 00:05:10;;;;;;;33.85;15.52;;;2.00;99.90;;;;;;5076921;28;20044;-69
2020/12/01 00:07:38;;;;;;;21.67;12.13;;;2.00;99.90;;;;;;5077297;28;20025;-69
2020/12/01 00:10:08;;;;;;;29.13;13.85;;;2.00;99.90;;;;;;5077596;28;20476;-69
2020/12/01 00:12:40;;;;;;;18.02;9.57;;;2.00;99.90;;;;;;5077048;28;20052;-69
2020/12/01 00:15:09;;;;;;;27.27;14.77;;;2.00;99.90;;;;;;5077544;28;20025;-69
2020/12/01 00:17:37;;;;;;;28.10;12.82;;;1.90;99.90;;;;;;5077196;28;20028;-69
2020/12/01 00:20:06;;;;;;;31.38;14.95;;;1.90;99.90;;;;;;5077348;28;20032;-69
2020/12/01 00:22:35;;;;;;;19.15;10.15;;;1.90;99.90;;;;;;5076881;28;20069;-68
2020/12/01 00:25:05;;;;;;;25.85;12.95;;;1.90;99.90;;;;;;5059008;28;20025;-69
2020/12/01 00:27:33;;;;;;;28.42;13.18;;;1.90;99.90;;;;;;5076985;28;20320;-69
2020/12/01 00:30:01;;;;;;;19.52;11.07;;;1.90;99.90;;;;;;5077357;28;20020;-69
2020/12/01 00:32:29;;;;;;;28.98;14.05;;;1.90;99.90;;;;;;5076748;28;20298;-69
2020/12/01 00:34:56;;;;;;;21.17;9.57;;;1.90;99.90;;;;;;5077267;28;20024;-69
2020/12/01 00:37:24;;;;;;;29.00;15.02;;;1.90;99.90;;;;;;5076838;28;20032;-69
2020/12/01 00:39:52;;;;;;;28.35;15.82;;;1.90;99.90;;;;;;5076359;28;20440;-69
2020/12/01 00:42:19;;;;;;;30.08;14.93;;;1.90;99.90;;;;;;5077226;28;20021;-69
2020/12/01 00:44:46;;;;;;;25.33;13.95;;;1.90;99.90;;;;;;5058776;28;20324;-69
2020/12/01 00:47:14;;;;;;;29.75;14.45;;;1.90;99.90;;;;;;5076806;28;20028;-69
2020/12/01 00:49:42;;;;;;;32.75;15.13;;;1.90;99.90;;;;;;5076596;28;20412;-69
2020/12/01 00:52:10;;;;;;;27.38;14.05;;;1.90;99.90;;;;;;5058727;28;20025;-69
2020/12/01 00:54:38;;;;;;;27.70;13.60;;;1.90;99.90;;;;;;5077078;28;20031;-69
2020/12/01 00:57:06;;;;;;;28.08;13.32;;;1.90;99.90;;;;;;5077226;28;20020;-69
2020/12/01 00:59:34;;;;;;;29.85;15.98;;;1.90;99.90;;;;;;5077051;28;20100;-69
2020/12/01 01:02:01;;;;;;;29.65;14.27;;;1.90;99.90;;;;;;5076805;28;20157;-69
2020/12/01 01:04:29;;;;;;;28.98;14.57;;;1.90;99.90;;;;;;5076367;28;20127;-69
2020/12/01 01:06:56;;;;;;;30.50;14.60;;;1.90;99.90;;;;;;5058512;28;20117;-69
2020/12/01 01:09:24;;;;;;;28.48;14.65;;;1.90;99.90;;;;;;5058579;28;20028;-69
2020/12/01 01:11:52;;;;;;;26.67;13.95;;;1.90;99.90;;;;;;5076383;28;20045;-69
2020/12/01 01:14:19;;;;;;;27.25;14.23;;;1.90;99.90;;;;;;5076890;28;20025;-69
2020/12/01 01:16:47;;;;;;;29.98;14.10;;;1.90;99.90;;;;;;5076479;28;20074;-69
2020/12/01 01:19:15;;;;;;;29.02;14.13;;;1.90;99.90;;;;;;5076839;28;20025;-69
2020/12/01 01:21:45;;;;;;;29.50;14.02;;;1.90;99.90;;;;;;5076389;28;20087;-69
2020/12/01 01:24:15;;;;;;;27.88;13.73;;;1.90;99.90;;;;;;5076728;28;20020;-69
2020/12/01 01:26:54;;;;;;;26.00;13.95;;;1.90;99.90;;;;;;5058429;28;20027;-69
2020/12/01 01:29:23;;;;;;;28.23;14.60;;;1.90;99.90;;;;;;5058358;28;20115;-69
2020/12/01 01:31:55;;;;;;;28.05;12.85;;;1.90;99.90;;;;;;5076153;28;20320;-69
2020/12/01 01:34:23;;;;;;;26.70;14.63;;;1.90;99.90;;;;;;5058352;28;20071;-69
2020/12/01 01:36:51;;;;;;;25.10;13.55;;;1.90;99.90;;;;;;5076240;28;20043;-69
2020/12/01 01:39:19;;;;;;;27.70;14.15;;;1.90;99.90;;;;;;5058274;28;20119;-69
2020/12/01 01:41:47;;;;;;;25.75;12.55;;;1.90;99.90;;;;;;5076129;28;20024;-69
2020/12/01 01:44:21;;;;;;;23.85;12.63;;;1.90;99.90;;;;;;5075946;28;20033;-69
2020/12/01 01:47:13;;;;;;;24.30;12.27;;;1.90;99.90;;;;;;5076486;28;20368;-69
2020/12/01 01:49:42;;;;;;;26.60;13.95;;;1.90;99.90;;;;;;5058966;28;20032;-69
2020/12/01 01:52:39;;;;;;;25.27;12.90;;;1.90;99.90;;;;;;5077759;28;20024;-68
2020/12/01 01:55:16;;;;;;;29.40;12.95;;;1.90;99.90;;;;;;5061932;28;20108;-69
2020/12/01 01:57:53;;;;;;;24.30;12.77;;;1.90;99.90;;;;;;5079704;28;20081;-69
2020/12/01 02:00:56;;;;;;;26.50;13.02;;;1.90;99.90;;;;;;5079597;28;20027;-69
2020/12/01 02:03:39;;;;;;;23.95;12.27;;;1.90;99.90;;;;;;5080137;28;20369;-69
2020/12/01 02:06:20;;;;;;;25.70;13.45;;;1.90;99.90;;;;;;5079666;28;20388;-69
2020/12/01 02:09:07;;;;;;;24.95;13.23;;;2.00;99.90;;;;;;5079497;28;20021;-69
2020/12/01 02:11:35;;;;;;;;;;;1.90;99.90;;;;;;5080143;28;20024;-69
2020/12/01 02:14:13;;;;;;;26.90;13.57;;;1.90;99.90;;;;;;5061660;28;19904;-69
2020/12/01 02:16:56;;;;;;;25.95;12.27;;;2.00;99.90;;;;;;5079786;28;20420;-69
2020/12/01 02:19:29;;;;;;;26.70;12.45;;;1.90;99.90;;;;;;5079828;28;20449;-69
2020/12/01 02:21:58;;;;;;;23.85;12.38;;;1.90;99.90;;;;;;5079723;28;20024;-69
2020/12/01 02:24:27;;;;;;;23.98;12.15;;;2.00;99.90;;;;;;5061268;28;20421;-69
2020/12/01 02:26:58;;;;;;;23.52;12.48;;;2.00;99.90;;;;;;5079135;28;20032;-69
2020/12/01 02:29:31;;;;;;;22.98;12.77;;;2.00;99.90;;;;;;5062277;28;20103;-69
2020/12/01 02:32:00;;;;;;;26.02;12.70;;;2.00;99.90;;;;;;5079599;28;20151;-69
2020/12/01 02:34:40;;;;;;;24.67;12.65;;;2.00;99.90;;;;;;5079541;28;20019;-69
2020/12/01 02:37:09;;;;;;;23.90;12.07;;;2.00;99.90;;;;;;5078875;28;20039;-69
2020/12/01 02:39:37;;;;;;;26.10;13.10;;;2.10;99.90;;;;;;5078945;28;20013;-69
2020/12/01 02:42:10;;;;;;;22.73;11.80;;;2.00;99.90;;;;;;5079562;28;20031;-69
2020/12/01 02:44:38;;;;;;;24.15;11.27;;;2.10;99.90;;;;;;5060943;28;20427;-69
2020/12/01 02:47:06;;;;;;;19.75;10.10;;;2.10;99.90;;;;;;5078919;28;20095;-69
2020/12/01 02:49:35;;;;;;;22.70;12.30;;;2.10;99.90;;;;;;5079349;28;20021;-69
2020/12/01 02:52:04;;;;;;;22.10;11.82;;;2.10;99.90;;;;;;5079256;28;20074;-68
2020/12/01 02:54:32;;;;;;;25.88;13.25;;;2.10;99.90;;;;;;5060875;28;20020;-69
2020/12/01 02:57:00;;;;;;;22.75;12.32;;;2.20;99.90;;;;;;5079201;28;20048;-69
2020/12/01 02:59:28;;;;;;;24.20;11.85;;;2.20;99.90;;;;;;5078552;28;20013;-69
2020/12/01 03:01:56;;;;;;;26.90;12.15;;;2.20;99.90;;;;;;5078482;28;20097;-69
2020/12/01 03:04:24;;;;;;;25.63;11.48;;;2.20;99.90;;;;;;5078320;28;20099;-69
2020/12/01 03:06:51;;;;;;;21.80;12.07;;;2.20;99.90;;;;;;5078368;28;20037;-69
2020/12/01 03:09:20;;;;;;;20.13;11.07;;;2.20;99.90;;;;;;5078267;28;20108;-69
2020/12/01 03:11:48;;;;;;;24.80;12.13;;;2.20;99.90;;;;;;5079036;28;20020;-68
2020/12/01 03:14:17;;;;;;;21.73;10.60;;;2.20;99.90;;;;;;5078221;28;20023;-69
2020/12/01 03:16:49;;;;;;;24.08;12.55;;;2.20;99.90;;;;;;5078248;28;20078;-69
2020/12/01 03:19:19;;;;;;;26.92;13.18;;;2.20;99.90;;;;;;5078110;28;20020;-69
2020/12/01 03:21:47;;;;;;;24.30;12.80;;;2.20;99.90;;;;;;5078252;28;20028;-69
2020/12/01 03:24:15;;;;;;;22.25;11.32;;;2.20;99.90;;;;;;5077926;28;20028;-69
2020/12/01 03:26:43;;;;;;;24.75;12.50;;;2.20;99.90;;;;;;5078057;28;20029;-69
2020/12/01 03:29:11;;;;;;;18.70;9.77;;;2.20;99.90;;;;;;5077954;28;20051;-69
2020/12/01 03:31:39;;;;;;;21.17;11.80;;;2.20;99.90;;;;;;5078280;28;20048;-69
2020/12/01 03:34:07;;;;;;;20.83;10.63;;;2.20;99.90;;;;;;5077842;28;20032;-69
2020/12/01 03:36:35;;;;;;;21.27;10.05;;;2.20;99.90;;;;;;5077903;28;20028;-69
2020/12/01 03:39:03;;;;;;;24.85;11.68;;;2.20;99.90;;;;;;5077735;28;20154;-69
2020/12/01 03:41:31;;;;;;;26.85;12.68;;;2.20;99.90;;;;;;5077898;28;20016;-69
2020/12/01 03:43:58;;;;;;;23.23;12.45;;;2.20;99.90;;;;;;5077612;28;20413;-69
2020/12/01 03:46:27;;;;;;;22.02;12.48;;;2.20;99.90;;;;;;5077500;28;20032;-69
2020/12/01 03:48:58;;;;;;;25.25;12.43;;;2.30;99.90;;;;;;5076498;28;20039;-68
2020/12/01 03:51:29;;;;;;;23.65;11.90;;;2.30;99.90;;;;;;5077571;28;20017;-69
2020/12/01 03:53:57;;;;;;;18.73;10.48;;;2.30;99.90;;;;;;5077428;28;20359;-68
2020/12/01 03:56:25;;;;;;;25.48;11.75;;;2.30;99.90;;;;;;5077986;28;20021;-69
2020/12/01 03:58:52;;;;;;;18.90;11.13;;;2.30;99.90;;;;;;5077339;28;20107;-69
2020/12/01 04:01:20;;;;;;;24.45;11.48;;;2.30;99.90;;;;;;5078234;28;20021;-69
2020/12/01 04:03:48;;;;;;;22.98;11.73;;;2.30;99.90;;;;;;5077267;28;20511;-68
2020/12/01 04:06:16;;;;;;;21.27;12.10;;;2.30;99.90;;;;;;5077131;28;20464;-69
2020/12/01 04:08:45;;;;;;;22.67;12.10;;;2.30;99.90;;;;;;5077132;28;20027;-69
2020/12/01 04:11:13;;;;;;;21.30;11.45;;;2.30;99.90;;;;;;5059535;28;20028;-69
2020/12/01 04:13:40;;;;;;;24.80;12.48;;;2.30;99.90;;;;;;5076781;28;20024;-69
2020/12/01 04:16:09;;;;;;;20.02;11.27;;;2.30;99.90;;;;;;5077324;28;20471;-69
2020/12/01 04:18:37;;;;;;;23.10;11.68;;;2.30;99.90;;;;;;5076977;28;20303;-69
2020/12/01 04:21:05;;;;;;;21.05;11.60;;;2.30;99.90;;;;;;5077151;28;20024;-69
2020/12/01 04:23:33;;;;;;;22.42;10.88;;;2.30;99.90;;;;;;5059156;28;20024;-69
2020/12/01 04:26:01;;;;;;;25.02;12.13;;;2.40;99.90;;;;;;5076803;28;20024;-69
2020/12/01 04:28:29;;;;;;;20.50;10.18;;;2.40;99.90;;;;;;5076887;28;20317;-69
2020/12/01 04:30:57;;;;;;;20.77;10.23;;;2.40;99.90;;;;;;5059457;28;20432;-69
2020/12/01 04:33:25;;;;;;;15.93;8.68;;;2.40;99.90;;;;;;5059587;28;20024;-69
2020/12/01 04:35:52;;;;;;;17.55;9.63;;;2.40;99.90;;;;;;5077018;28;20051;-69
2020/12/01 04:38:20;;;;;;;18.38;8.38;;;2.40;99.90;;;;;;5076602;28;20028;-69
2020/12/01 04:40:48;;;;;;;19.08;10.68;;;2.50;99.90;;;;;;5076943;28;20028;-69
2020/12/01 04:43:35;;;;;;;19.70;10.55;;;2.50;99.90;;;;;;5076655;28;20024;-69
2020/12/01 04:46:06;;;;;;;21.02;10.63;;;2.50;99.90;;;;;;5076598;28;20017;-69
2020/12/01 04:48:43;;;;;;;18.38;9.73;;;2.50;99.90;;;;;;5076632;28;20519;-69
2020/12/01 04:51:31;;;;;;;21.25;10.70;;;2.50;99.90;;;;;;5076809;28;20095;-69
2020/12/01 04:54:38;;;;;;;20.33;10.35;;;2.50;99.90;;;;;;5077147;28;20070;-69
2020/12/01 04:57:38;;;;;;;18.85;10.35;;;2.50;99.90;;;;;;4988600;28;20108;-69
2020/12/01 05:00:16;;;;;;;11.00;6.30;;;2.50;99.90;;;;;;5076750;28;20021;-69
2020/12/01 05:03:05;;;;;;;17.27;9.52;;;2.50;99.90;;;;;;5076502;28;20032;-69
2020/12/01 05:08:53;;;;;;;18.65;9.60;;;2.50;99.90;;;;;;5053968;28;20035;-69
2020/12/01 05:11:42;;;;;;;20.17;10.20;;;2.50;99.90;;;;;;5058533;28;20028;-69
2020/12/01 05:14:23;;;;;;;14.10;7.32;;;2.50;99.90;;;;;;5076895;28;20021;-69
2020/12/01 05:17:12;;;;;;;20.73;10.32;;;2.50;99.90;;;;;;5076498;28;20028;-69
2020/12/01 05:19:47;;;;;;;21.02;10.57;;;2.50;99.90;;;;;;5076203;28;20078;-69
2020/12/01 05:22:19;;;;;;;21.10;10.80;;;2.50;99.90;;;;;;5058497;28;20028;-69
2020/12/01 05:24:50;;;;;;;25.75;12.35;;;2.50;99.90;;;;;;5076104;28;20016;-69
2020/12/01 05:27:34;;;;;;;24.73;11.63;;;2.50;99.90;;;;;;5080221;28;20024;-68
2020/12/01 05:30:22;;;;;;;26.73;12.75;;;2.50;99.90;;;;;;5080154;28;20017;-69
2020/12/01 05:32:56;;;;;;;23.83;11.60;;;2.50;99.90;;;;;;5080221;28;20024;-69
2020/12/01 05:35:34;;;;;;;22.98;10.43;;;2.50;99.90;;;;;;5062232;28;20063;-69
2020/12/01 05:38:18;;;;;;;21.85;10.85;;;2.50;99.90;;;;;;5080090;28;20099;-69
2020/12/01 05:40:58;;;;;;;23.10;11.68;;;2.50;99.90;;;;;;5079932;28;20021;-69
2020/12/01 05:43:34;;;;;;;20.02;10.40;;;2.50;99.90;;;;;;5079923;28;20031;-69
2020/12/01 05:46:13;;;;;;;15.77;9.02;;;2.50;99.90;;;;;;5080554;28;20093;-69
2020/12/01 05:48:59;;;;;;;16.20;8.77;;;2.50;99.90;;;;;;5080403;28;20317;-69
2020/12/01 05:51:42;;;;;;;18.05;9.23;;;2.50;99.90;;;;;;5080004;28;20021;-69
2020/12/01 05:54:17;;;;;;;22.42;10.70;;;2.50;99.90;;;;;;5080333;28;20430;-69
2020/12/01 05:56:53;;;;;;;18.48;10.02;;;2.50;99.90;;;;;;5062751;28;20111;-69
2020/12/01 05:59:24;;;;;;;16.33;8.57;;;2.50;99.90;;;;;;5079676;28;20028;-69
2020/12/01 06:02:00;;;;;;;20.90;10.40;;;2.50;99.90;;;;;;5079866;28;20056;-69
2020/12/01 06:04:28;;;;;;;22.52;11.13;;;2.50;99.90;;;;;;5079680;28;20032;-69
2020/12/01 06:07:02;;;;;;;25.13;11.50;;;2.60;99.90;;;;;;5098705;28;20323;-69
2020/12/01 06:09:46;;;;;;;26.73;12.57;;;2.60;99.90;;;;;;5100344;28;20020;-69
2020/12/01 06:12:32;;;;;;;22.33;11.95;;;2.50;99.90;;;;;;5100324;28;20351;-69
2020/12/01 06:15:16;;;;;;;24.70;11.63;;;2.50;99.90;;;;;;5100160;28;20054;-69
2020/12/01 06:18:01;;;;;;;21.33;11.70;;;2.50;99.90;;;;;;5099805;28;20024;-69
2020/12/01 06:20:52;;;;;;;26.60;11.97;;;2.50;99.90;;;;;;5099756;28;20028;-69
2020/12/01 06:24:10;;;;;;;20.27;9.65;;;2.50;99.90;;;;;;5100083;28;20265;-69
2020/12/01 06:27:08;;;;;;;18.38;11.18;;;2.50;99.90;;;;;;5065651;28;20458;-69
2020/12/01 06:30:03;;;;;;;20.88;10.50;;;2.50;99.90;;;;;;5099703;28;20052;-69
2020/12/01 06:32:55;;;;;;;17.92;9.93;;;2.50;99.90;;;;;;5099965;28;20320;-67
2020/12/01 06:35:24;;;;;;;17.15;10.02;;;2.50;99.90;;;;;;5099449;28;20016;-67
2020/12/01 06:38:13;;;;;;;15.68;9.35;;;2.50;99.90;;;;;;5099242;28;20024;-67
2020/12/01 06:40:57;;;;;;;19.63;9.48;;;2.50;99.90;;;;;;5099795;28;20095;-67
2020/12/01 06:43:50;;;;;;;19.35;9.95;;;2.40;99.90;;;;;;5099173;28;20099;-65
2020/12/01 06:46:38;;;;;;;18.77;10.10;;;2.50;99.90;;;;;;5099438;28;20404;-67
2020/12/01 06:49:16;;;;;;;18.77;10.25;;;2.50;99.90;;;;;;5099264;28;20099;-67
2020/12/01 06:51:49;;;;;;;17.58;9.32;;;2.50;99.90;;;;;;5097857;28;20028;-68
2020/12/01 06:54:18;;;;;;;18.15;10.18;;;2.50;99.90;;;;;;5099476;28;20016;-68
2020/12/01 06:57:05;;;;;;;21.23;10.65;;;2.50;99.90;;;;;;5099344;28;20024;-68
2020/12/01 06:59:33;;;;;;;17.90;10.27;;;2.50;99.90;;;;;;5097779;28;20024;-68
2020/12/01 07:02:18;;;;;;;16.30;8.70;;;2.50;99.90;;;;;;5098766;28;20024;-68
2020/12/01 07:04:45;;;;;;;19.85;9.38;;;2.50;99.90;;;;;;5096713;28;20077;-68
2020/12/01 07:07:44;;;;;;;15.13;8.45;;;2.40;99.90;;;;;;5079358;28;20025;-69
2020/12/01 07:10:30;;;;;;;16.65;9.82;;;2.50;99.90;;;;;;5062332;28;20036;-69
2020/12/01 07:13:33;;;;;;;17.80;9.65;;;2.40;99.90;;;;;;5078896;28;20017;-69
2020/12/01 07:16:21;;;;;;;15.02;9.00;;;2.40;99.90;;;;;;5078238;28;20070;-69
2020/12/01 07:18:53;;;;;;;17.77;9.40;;;2.50;99.90;;;;;;5078169;28;20031;-67
2020/12/01 07:21:46;;;;;;;18.92;9.95;;;2.50;99.90;;;;;;5078775;28;20293;-68
2020/12/01 07:24:36;;;;;;;20.40;9.80;;;2.50;99.90;;;;;;5078052;28;20055;-68
2020/12/01 07:27:35;;;;;;;17.95;8.93;;;2.50;99.90;;;;;;5079141;28;20368;-69
2020/12/01 07:30:19;;;;;;;15.27;9.45;;;2.50;99.90;;;;;;5077955;28;20096;-68
2020/12/01 07:32:57;;;;;;;16.00;9.13;;;2.50;99.90;;;;;;5078450;28;20412;-69
2020/12/01 07:35:55;;;;;;;18.17;8.82;;;2.50;99.90;;;;;;5060029;28;20033;-68
2020/12/01 07:38:23;;;;;;;16.17;8.13;;;2.50;99.90;;;;;;5078054;28;20055;-65
2020/12/01 07:40:56;;;;;;;17.00;9.35;;;2.50;99.90;;;;;;5078483;28;20048;-66
2020/12/01 07:43:25;;;;;;;16.75;9.02;;;2.50;99.90;;;;;;5077608;28;20028;-68
2020/12/01 07:46:03;;;;;;;17.65;9.50;;;2.50;99.90;;;;;;5059855;28;20346;-67
2020/12/01 07:48:32;;;;;;;21.80;12.00;;;2.50;99.90;;;;;;5077729;28;20074;-66
2020/12/01 07:51:05;;;;;;;21.23;10.55;;;2.50;99.90;;;;;;5077116;28;20020;-67
2020/12/01 07:53:40;;;;;;;17.67;9.18;;;2.50;99.90;;;;;;5078059;28;20017;-66
2020/12/01 07:56:12;;;;;;;16.50;8.35;;;2.50;99.90;;;;;;5077383;28;20071;-66
2020/12/01 07:58:40;;;;;;;15.00;8.32;;;2.50;99.90;;;;;;5077375;28;20021;-67
2020/12/01 08:01:18;;;;;;;21.38;10.15;;;2.50;99.90;;;;;;5078064;28;20113;-65
2020/12/01 08:03:46;;;;;;;17.10;9.90;;;2.50;99.90;;;;;;5077553;28;20027;-67
2020/12/01 08:06:16;;;;;;;16.55;8.73;;;2.50;99.90;;;;;;5077038;28;20163;-67
2020/12/01 08:08:47;;;;;;;18.65;10.10;;;2.50;99.90;;;;;;5077983;28;20028;-67
2020/12/01 08:11:18;;;;;;;21.40;9.82;;;2.50;99.90;;;;;;5077169;28;20031;-66
2020/12/01 08:13:51;;;;;;;18.58;9.77;;;2.60;99.90;;;;;;5077631;28;20032;-65
2020/12/01 08:16:28;;;;;;;18.13;9.73;;;2.50;99.90;;;;;;5077029;28;20073;-67
2020/12/01 08:18:56;;;;;;;18.70;10.02;;;2.60;99.90;;;;;;5077550;28;20044;-68
2020/12/01 08:21:35;;;;;;;17.52;9.05;;;2.60;99.90;;;;;;5076853;28;20028;-67
2020/12/01 08:24:07;;;;;;;17.35;8.80;;;2.60;99.90;;;;;;5076804;28;20027;-67
2020/12/01 08:26:37;;;;;;;16.02;9.40;;;2.60;99.90;;;;;;5076835;28;20031;-67
2020/12/01 08:29:15;;;;;;;18.05;9.02;;;2.60;99.90;;;;;;5076899;28;20054;-67
2020/12/01 08:31:58;;;;;;;16.67;9.10;;;2.60;99.90;;;;;;5076814;28;20024;-67
2020/12/01 08:34:43;;;;;;;18.30;9.48;;;2.60;99.90;;;;;;5076685;28;20320;-67
2020/12/01 08:37:38;;;;;;;17.08;8.43;;;2.60;99.90;;;;;;5077264;28;20017;-67
2020/12/01 08:40:27;;;;;;;19.50;9.95;;;2.60;99.90;;;;;;5076956;28;20028;-67
2020/12/01 08:43:30;;;;;;;19.58;10.57;;;2.60;99.90;;;;;;5076953;28;20020;-67
2020/12/01 08:46:33;;;;;;;20.80;8.90;;;2.70;99.90;;;;;;5077104;28;20404;-67
2020/12/01 08:49:55;;;;;;;18.02;8.80;;;2.70;99.90;;;;;;5076168;28;20033;-67
2020/12/01 08:52:03;;;;;;;17.58;8.60;;;2.70;99.90;;;;;;5069043;28;20332;-67
2020/12/01 08:54:37;;;;;;;17.65;8.98;;;2.70;99.90;;;;;;5076521;28;20036;-67
2020/12/01 08:57:23;;;;;;;17.27;8.93;;;2.70;99.90;;;;;;5058816;28;20051;-67
2020/12/01 09:00:07;;;;;;;17.02;8.77;;;2.70;99.90;;;;;;5076899;28;20020;-67
2020/12/01 09:02:44;;;;;;;16.50;8.57;;;2.70;99.90;;;;;;5076990;28;20104;-67
2020/12/01 09:05:34;;;;;;;16.08;7.93;;;2.70;99.90;;;;;;5076671;28;20115;-67
2020/12/01 09:11:44;;;;;;;17.25;9.57;;;2.70;99.90;;;;;;5076352;28;20397;-67
2020/12/01 09:14:38;;;;;;;18.42;10.07;;;2.80;99.90;;;;;;5074696;28;20086;-67
2020/12/01 09:17:39;;;;;;;14.82;8.73;;;2.80;99.90;;;;;;5076530;28;20016;-67
2020/12/01 09:23:26;;;;;;;16.40;8.25;;;2.80;99.90;;;;;;5076276;28;20313;-66
2020/12/01 09:25:55;;;;;;;15.27;8.88;;;2.90;99.90;;;;;;5060399;28;20040;-66
2020/12/01 09:28:27;;;;;;;17.20;8.68;;;2.90;99.90;;;;;;5076213;28;20298;-66
2020/12/01 09:31:01;;;;;;;24.63;12.55;;;3.00;99.90;;;;;;5076786;28;20316;-66
2020/12/01 09:33:29;;;;;;;18.58;9.50;;;3.00;99.90;;;;;;5076200;28;20035;-66
2020/12/01 09:35:58;;;;;;;17.00;9.38;;;3.00;99.90;;;;;;5076644;28;20048;-66
2020/12/01 09:38:25;;;;;;;14.75;8.88;;;3.10;99.90;;;;;;5076654;28;20056;-66
2020/12/01 09:40:53;;;;;;;12.85;7.32;;;3.10;99.90;;;;;;5076585;28;20020;-66
2020/12/01 09:43:32;;;;;;;15.60;7.85;;;3.20;99.90;;;;;;5076576;28;20020;-65
2020/12/01 09:46:06;;;;;;;16.17;9.07;;;3.20;99.90;;;;;;5076560;28;20029;-67
2020/12/01 09:48:38;;;;;;;15.45;8.48;;;3.20;99.90;;;;;;5075998;28;20444;-67
2020/12/01 09:51:07;;;;;;;16.73;8.10;;;3.20;99.90;;;;;;5075735;28;20025;-67
2020/12/01 10:09:23;;;;;;;16.10;7.80;;;3.50;99.90;;;;;;5076140;28;20028;-66
2020/12/01 10:36:28;;;;;;;17.40;8.15;;;4.20;99.90;;;;;;5079179;28;20028;-66
2020/12/01 10:38:59;;;;;;;14.30;7.68;;;4.30;99.90;;;;;;5078935;28;20025;-66
2020/12/01 10:41:32;;;;;;;21.63;9.52;;;4.40;99.90;;;;;;5079397;28;20077;-65
2020/12/01 10:44:01;;;;;;;16.73;8.35;;;4.60;99.90;;;;;;5078907;28;20024;-66
2020/12/01 10:46:30;;;;;;;16.88;8.65;;;4.70;99.90;;;;;;5060983;28;20032;-66
2020/12/01 10:48:58;;;;;;;17.85;7.95;;;4.80;99.90;;;;;;5079360;28;20073;-66
2020/12/01 10:51:26;;;;;;;18.13;8.52;;;4.90;99.90;;;;;;5078942;28;20020;-66
2020/12/01 10:53:54;;;;;;;18.17;9.48;;;5.00;99.90;;;;;;5079225;28;20017;-65
2020/12/01 10:56:22;;;;;;;16.92;8.35;;;5.10;99.90;;;;;;5078596;28;20109;-67
2020/12/01 10:58:50;;;;;;;16.77;9.38;;;5.10;99.90;;;;;;5078553;28;20036;-65
2020/12/01 11:01:17;;;;;;;14.18;8.05;;;5.20;99.90;;;;;;5078524;28;20021;-66
2020/12/01 11:03:44;;;;;;;15.63;8.32;;;5.20;99.90;;;;;;5078500;28;20420;-66
2020/12/01 11:06:12;;;;;;;15.27;9.38;;;5.10;99.90;;;;;;5078483;28;20059;-66
2020/12/01 11:08:40;;;;;;;19.98;9.50;;;5.10;99.90;;;;;;5078961;28;20032;-66
2020/12/01 11:11:07;;;;;;;15.82;9.60;;;5.00;99.90;;;;;;5078838;28;20371;-66
2020/12/01 11:13:34;;;;;;;17.70;9.40;;;5.00;99.90;;;;;;5060429;28;20021;-66
2020/12/01 11:16:03;;;;;;;17.33;8.38;;;4.90;99.90;;;;;;5060524;28;20060;-66
2020/12/01 11:18:30;;;;;;;27.75;11.88;;;4.80;99.90;;;;;;5078832;28;20036;-66
2020/12/01 11:20:58;;;;;;;28.55;10.90;;;4.70;99.90;;;;;;5078097;28;20024;-66
2020/12/01 11:23:26;;;;;;;21.15;11.68;;;4.70;99.90;;;;;;5060158;28;20024;-66
2020/12/01 11:25:54;;;;;;;21.40;10.57;;;4.60;99.90;;;;;;5077976;28;20023;-66
2020/12/01 11:28:22;;;;;;;34.40;15.60;;;4.50;99.90;;;;;;5078509;28;20112;-66
2020/12/01 11:30:49;;;;;;;25.55;12.43;;;4.50;99.90;;;;;;5078017;28;20023;-72
2020/12/01 11:33:17;;;;;;;21.67;11.18;;;4.40;99.90;;;;;;5078097;28;20021;-66
2020/12/01 11:35:45;;;;;;;22.17;11.65;;;4.40;99.90;;;;;;5078326;28;20412;-66
2020/12/01 11:38:14;;;;;;;24.70;11.10;;;4.40;99.90;;;;;;5077802;28;20476;-66
2020/12/01 11:40:42;;;;;;;31.33;14.25;;;4.30;99.90;;;;;;5077767;28;20025;-66
2020/12/01 11:43:09;;;;;;;34.45;14.20;;;4.30;99.90;;;;;;5077660;28;20103;-65
2020/12/01 11:45:38;;;;;;;46.17;19.38;;;4.30;99.90;;;;;;5077888;28;20051;-65
2020/12/01 11:48:05;;;;;;;29.40;13.13;;;4.30;99.90;;;;;;5077549;28;20017;-65
2020/12/01 11:50:34;;;;;;;48.17;19.67;;;4.30;99.90;;;;;;5077563;28;20443;-65
2020/12/01 11:53:04;;;;;;;25.15;12.25;;;4.30;99.90;;;;;;5078064;28;20404;-65
2020/12/01 11:55:31;;;;;;;26.15;12.60;;;4.30;99.90;;;;;;5077730;28;20447;-65
2020/12/01 11:57:59;;;;;;;27.10;12.80;;;4.30;99.90;;;;;;5059759;28;20028;-67
2020/12/01 12:00:29;;;;;;;38.67;16.45;;;4.30;99.90;;;;;;5077962;28;20070;-66
2020/12/01 12:02:56;;;;;;;24.00;11.60;;;4.30;99.90;;;;;;5077646;28;20103;-66
2020/12/01 12:05:24;;;;;;;42.55;18.58;;;4.30;99.90;;;;;;5070009;28;20075;-67
2020/12/01 12:07:52;;;;;;;26.70;12.68;;;4.20;99.90;;;;;;5098052;28;20016;-66
2020/12/01 12:10:21;;;;;;;40.03;15.38;;;4.30;99.90;;;;;;5096484;28;20024;-67
2020/12/01 12:12:49;;;;;;;32.03;13.90;;;4.30;99.90;;;;;;5098003;28;20024;-66
2020/12/01 12:15:16;;;;;;;43.08;16.90;;;4.30;99.90;;;;;;5096376;28;20412;-67
2020/12/01 12:17:44;;;;;;;35.33;14.57;;;4.20;99.90;;;;;;5097423;28;20031;-67
2020/12/01 12:20:12;;;;;;;25.83;13.07;;;4.20;99.90;;;;;;5096278;28;20020;-67
2020/12/01 12:22:40;;;;;;;29.73;14.50;;;4.30;99.90;;;;;;5097937;28;20020;-66
2020/12/01 12:25:08;;;;;;;24.30;12.50;;;4.30;99.90;;;;;;5096360;28;20031;-67
2020/12/01 12:27:36;;;;;;;21.55;11.27;;;4.30;99.90;;;;;;5097182;28;20430;-66
2020/12/01 12:30:05;;;;;;;25.88;12.82;;;4.30;99.90;;;;;;5097363;28;20032;-67
2020/12/01 12:32:33;;;;;;;24.05;11.05;;;4.30;99.90;;;;;;5097151;28;20016;-67
2020/12/01 12:35:01;;;;;;;23.77;11.30;;;4.20;99.90;;;;;;5096522;28;20027;-67
2020/12/01 12:37:29;;;;;;;23.60;11.57;;;4.20;99.90;;;;;;5095941;28;20073;-67
2020/12/01 12:39:57;;;;;;;29.42;12.38;;;4.10;99.90;;;;;;5097205;28;20081;-66
2020/12/01 12:42:26;;;;;;;22.88;11.82;;;4.10;99.90;;;;;;5095881;28;20039;-67
2020/12/01 12:44:54;;;;;;;21.80;10.48;;;4.20;99.90;;;;;;5097178;28;20030;-67
2020/12/01 12:47:21;;;;;;;19.83;10.45;;;4.20;99.90;;;;;;5097444;28;20065;-67
2020/12/01 12:49:49;;;;;;;28.50;11.55;;;4.20;99.90;;;;;;5097010;28;20027;-67
2020/12/01 12:52:17;;;;;;;29.17;12.93;;;4.20;99.90;;;;;;5095679;28;20024;-67
2020/12/01 12:54:44;;;;;;;23.52;11.77;;;4.20;99.90;;;;;;5096823;28;20031;-67
2020/12/01 12:57:12;;;;;;;21.30;11.50;;;4.20;99.90;;;;;;5096719;28;20020;-66
2020/12/01 12:59:40;;;;;;;23.30;11.75;;;4.30;99.90;;;;;;5096908;28;20027;-67
2020/12/01 13:02:08;;;;;;;20.38;10.48;;;4.30;99.90;;;;;;5096733;28;20016;-67
2020/12/01 13:04:35;;;;;;;26.20;12.07;;;4.30;99.90;;;;;;5096534;28;20048;-67
2020/12/01 13:07:03;;;;;;;21.52;11.68;;;4.40;99.90;;;;;;5076311;28;20432;-67
2020/12/01 13:09:31;;;;;;;26.20;11.13;;;4.40;99.90;;;;;;5058835;28;20020;-66
2020/12/01 13:12:01;;;;;;;22.63;10.85;;;4.40;99.90;;;;;;5076267;28;20025;-67
2020/12/01 13:14:29;;;;;;;23.00;12.35;;;4.40;99.90;;;;;;5076276;28;20147;-67
2020/12/01 13:16:57;;;;;;;28.60;13.30;;;4.50;99.90;;;;;;5076917;28;20174;-67
2020/12/01 13:19:25;;;;;;;23.77;12.18;;;4.50;99.90;;;;;;5076483;28;20029;-67
2020/12/01 13:21:53;;;;;;;21.50;11.07;;;4.50;99.90;;;;;;5076780;28;20028;-66
2020/12/01 13:24:20;;;;;;;22.27;11.15;;;4.50;99.90;;;;;;5076804;28;20031;-66
2020/12/01 13:26:51;;;;;;;28.33;13.55;;;4.50;99.90;;;;;;5076158;28;20078;-65
2020/12/01 13:29:19;;;;;;;22.25;10.77;;;4.50;99.90;;;;;;5076586;28;20016;-67
2020/12/01 13:31:50;;;;;;;25.73;10.32;;;4.40;99.90;;;;;;5058881;28;20017;-67
2020/12/01 13:34:18;;;;;;;21.70;11.25;;;4.40;99.90;;;;;;5058326;28;20504;-67
2020/12/01 13:36:45;;;;;;;24.90;11.52;;;4.40;99.90;;;;;;5076202;28;20025;-67
2020/12/01 13:39:13;;;;;;;23.02;11.32;;;4.40;99.90;;;;;;5058313;28;20451;-66
2020/12/01 13:41:41;;;;;;;24.63;12.48;;;4.50;99.90;;;;;;5076095;28;20029;-67
2020/12/01 13:44:09;;;;;;;30.50;13.05;;;4.50;99.90;;;;;;5076191;28;20086;-67
2020/12/01 13:46:37;;;;;;;29.75;13.57;;;4.50;99.90;;;;;;5075999;28;20028;-67
2020/12/01 13:49:04;;;;;;;29.63;14.52;;;4.50;99.90;;;;;;5079424;28;20040;-67
2020/12/01 13:51:32;;;;;;;48.72;22.88;;;4.50;99.90;;;;;;5080406;28;20017;-65
2020/12/01 13:54:00;;;;;;;48.83;22.15;;;4.50;99.90;;;;;;5080013;28;20297;-64
2020/12/01 13:56:28;;;;;;;41.17;17.45;;;4.50;99.90;;;;;;5061996;28;20024;-64
2020/12/01 13:58:58;;;;;;;31.48;15.73;;;4.50;99.90;;;;;;5079732;28;20024;-66
2020/12/01 14:01:26;;;;;;;21.27;10.82;;;4.60;99.90;;;;;;5061802;28;20112;-66